Time;durP1;ratioP1;P1;durP2;ratioP2;P2;SDS_P1;SDS_P2;PMS_P1;PMS_P2;Temp;Humidity;BMP_temperature;BMP_pressure;BME280_temperature;BME280_humidity;BME280_pressure;Samples;Min_cycle;Max_cycle;Signal;HPM_P1;HPM_P2
2021/09/29 00:00:34;;;;;;;;;;;;;;;;;;2098603;27;4869;-69
2021/09/29 00:01:35;;;;;;;;;;;;;;;;;;2099348;28;1096;-68
2021/09/29 00:02:35;;;;;;;;;;;;;;;;;;2099257;28;1068;-68
2021/09/29 00:03:37;;;;;;;;;;;;;;;;;;2099525;28;1127;-69
2021/09/29 00:04:37;;;;;;;;;;;;;;;;;;2099667;28;1217;-69
2021/09/29 00:05:39;;;;;;;;;;;;;;;;;;2100580;28;1182;-68
2021/09/29 00:06:39;;;;;;;;;;;;;;;;;;2101227;28;1440;-69
2021/09/29 00:07:40;;;;;;;;;;;;;;;;;;2099565;28;2467;-69
2021/09/29 00:08:40;;;;;;;;;;;;;;;;;;2100105;28;2620;-67
2021/09/29 00:09:41;;;;;;;;;;;;;;;;;;2099671;28;1300;-69
2021/09/29 00:10:41;;;;;;;;;;;;;;;;;;2099471;28;1084;-69
2021/09/29 00:11:42;;;;;;;;;;;;;;;;;;2099815;28;1010;-69
2021/09/29 00:12:42;;;;;;;;;;;;;;;;;;2098382;28;1312;-67
2021/09/29 00:13:44;;;;;;;;;;;;;;;;;;2099922;28;1223;-68
2021/09/29 00:14:44;;;;;;;;;;;;;;;;;;2099650;28;1110;-68
2021/09/29 00:15:45;;;;;;;;;;;;;;;;;;2099577;28;1026;-68
2021/09/29 00:16:45;;;;;;;;;;;;;;;;;;2098687;28;4937;-68
2021/09/29 00:17:46;;;;;;;;;;;;;;;;;;2099024;28;1398;-69
2021/09/29 00:18:47;;;;;;;;;;;;;;;;;;2099366;28;2726;-67
2021/09/29 00:19:48;;;;;;;;;;;;;;;;;;2099992;28;1097;-68
2021/09/29 00:20:48;;;;;;;;;;;;;;;;;;2099906;28;1077;-67
2021/09/29 00:21:49;;;;;;;;;;;;;;;;;;2099329;28;1134;-67
2021/09/29 00:22:50;;;;;;;;;;;;;;;;;;2099555;28;1108;-67
2021/09/29 00:23:51;;;;;;;;;;;;;;;;;;2100346;28;1571;-68
2021/09/29 00:24:51;;;;;;;;;;;;;;;;;;2099561;28;1138;-69
2021/09/29 00:25:52;;;;;;;;;;;;;;;;;;2099625;28;5109;-68
2021/09/29 00:26:52;;;;;;;;;;;;;;;;;;2099868;28;1368;-69
2021/09/29 00:27:53;;;;;;;;;;;;;;;;;;2098827;28;1254;-69
2021/09/29 00:28:53;;;;;;;;;;;;;;;;;;2098416;28;4998;-68
2021/09/29 00:29:58;;;;;;;;;;;;;;;;;;2099424;28;1129;-68
2021/09/29 00:31:04;;;;;;;;;;;;;;;;;;2100152;28;1195;-69
2021/09/29 00:32:06;;;;;;;;;;;;;;;;;;2099592;28;1021;-67
2021/09/29 00:33:08;;;;;;;;;;;;;;;;;;2099689;28;1385;-67
2021/09/29 00:34:09;;;;;;;;;;;;;;;;;;2099330;28;1130;-69
2021/09/29 00:35:10;;;;;;;;;;;;;;;;;;2098488;28;4876;-69
2021/09/29 00:36:11;;;;;;;;;;;;;;;;;;2099349;28;1614;-67
2021/09/29 00:37:12;;;;;;;;;;;;;;;;;;2099074;28;1378;-67
2021/09/29 00:38:12;;;;;;;;;;;;;;;;;;2098800;28;1150;-68
2021/09/29 00:39:13;;;;;;;;;;;;;;;;;;2099459;28;2953;-68
2021/09/29 00:40:13;;;;;;;;;;;;;;;;;;2099519;28;1029;-69
2021/09/29 00:41:14;;;;;;;;;;;;;;;;;;2099676;28;1057;-69
2021/09/29 00:42:14;;;;;;;;;;;;;;;;;;2099786;28;1196;-69
2021/09/29 00:43:15;;;;;;;;;;;;;;;;;;2099844;28;1166;-67
2021/09/29 00:44:16;;;;;;;;;;;;;;;;;;2100275;28;1210;-68
2021/09/29 00:45:17;;;;;;;;;;;;;;;;;;2099683;28;4333;-67
2021/09/29 00:46:17;;;;;;;;;;;;;;;;;;2099014;28;1396;-68
2021/09/29 00:47:18;;;;;;;;;;;;;;;;;;2099338;28;1309;-68
2021/09/29 00:48:18;;;;;;;;;;;;;;;;;;2099738;28;2690;-67
2021/09/29 00:49:19;;;;;;;;;;;;;;;;;;2099261;28;4185;-67
2021/09/29 00:50:19;;;;;;;;;;;;;;;;;;2100272;28;1292;-68
2021/09/29 00:51:20;;;;;;;;;;;;;;;;;;2101008;28;1197;-67
2021/09/29 00:52:20;;;;;;;;;;;;;;;;;;2100297;28;4562;-68
2021/09/29 00:53:21;;;;;;;;;;;;;;;;;;2100242;28;5299;-69
2021/09/29 00:54:26;;;;;;;;;;;;;;;;;;2101030;28;1391;-68
2021/09/29 00:55:27;;;;;;;;;;;;;;;;;;2097340;28;4216;-68
2021/09/29 00:56:27;;;;;;;;;;;;;;;;;;2097327;28;5028;-68
2021/09/29 00:57:28;;;;;;;;;;;;;;;;;;2095073;28;4320;-68
2021/09/29 00:58:29;;;;;;;;;;;;;;;;;;2098342;28;5111;-68
2021/09/29 00:59:30;;;;;;;;;;;;;;;;;;2099729;28;2671;-68
2021/09/29 01:00:30;;;;;;;;;;;;;;;;;;2099609;28;1063;-68
2021/09/29 01:01:31;;;;;;;;;;;;;;;;;;2099355;28;1171;-68
2021/09/29 01:02:31;;;;;;;;;;;;;;;;;;2100034;28;1577;-68
2021/09/29 01:03:32;;;;;;;;;;;;;;;;;;2099378;28;1086;-69
2021/09/29 01:04:32;;;;;;;;;;;;;;;;;;2099630;28;1423;-68
2021/09/29 01:05:33;;;;;;;;;;;;;;;;;;2095545;28;4823;-69
2021/09/29 01:06:33;;;;;;;;;;;;;;;;;;2096709;28;4673;-67
2021/09/29 01:07:34;;;;;;;;;;;;;;;;;;2095582;28;4084;-69
2021/09/29 01:08:35;;;;;;;;;;;;;;;;;;2094206;28;4190;-69
2021/09/29 01:09:36;;;;;;;;;;;;;;;;;;2095080;28;4704;-68
2021/09/29 01:10:37;;;;;;;;;;;;;;;;;;2096352;28;4452;-69
2021/09/29 01:11:37;;;;;;;;;;;;;;;;;;2097235;28;4992;-67
2021/09/29 01:12:38;;;;;;;;;;;;;;;;;;2096861;28;4382;-68
2021/09/29 01:13:38;;;;;;;;;;;;;;;;;;2095550;28;4704;-69
2021/09/29 01:14:39;;;;;;;;;;;;;;;;;;2093766;28;4159;-69
2021/09/29 01:15:39;;;;;;;;;;;;;;;;;;2097003;28;4715;-68
2021/09/29 01:16:40;;;;;;;;;;;;;;;;;;2096908;28;4195;-67
2021/09/29 01:17:41;;;;;;;;;;;;;;;;;;2096927;28;5461;-67
2021/09/29 01:18:42;;;;;;;;;;;;;;;;;;2094799;28;4517;-68
2021/09/29 01:19:42;;;;;;;;;;;;;;;;;;2095610;28;4053;-68
2021/09/29 01:20:44;;;;;;;;;;;;;;;;;;2095055;28;4671;-68
2021/09/29 01:21:44;;;;;;;;;;;;;;;;;;2095526;28;4030;-68
2021/09/29 01:22:45;;;;;;;;;;;;;;;;;;2095292;28;4287;-68
2021/09/29 01:23:46;;;;;;;;;;;;;;;;;;2096171;28;5032;-68
2021/09/29 01:24:47;;;;;;;;;;;;;;;;;;2099005;28;5336;-67
2021/09/29 01:25:47;;;;;;;;;;;;;;;;;;2101016;28;2537;-68
2021/09/29 01:26:48;;;;;;;;;;;;;;;;;;2101710;28;1169;-67
2021/09/29 01:27:48;;;;;;;;;;;;;;;;;;2100402;28;3695;-68
2021/09/29 01:28:49;;;;;;;;;;;;;;;;;;2098428;28;4485;-68
2021/09/29 01:29:49;;;;;;;;;;;;;;;;;;2095630;28;4530;-68
2021/09/29 01:30:50;;;;;;;;;;;;;;;;;;2098643;28;5075;-68
2021/09/29 01:31:50;;;;;;;;;;;;;;;;;;2095131;28;4043;-67
2021/09/29 01:32:51;;;;;;;;;;;;;;;;;;2095352;28;4022;-67
2021/09/29 01:33:52;;;;;;;;;;;;;;;;;;2094943;28;4633;-69
2021/09/29 01:34:53;;;;;;;;;;;;;;;;;;2098089;28;4733;-69
2021/09/29 01:35:53;;;;;;;;;;;;;;;;;;2101652;28;4919;-69
2021/09/29 01:36:54;;;;;;;;;;;;;;;;;;2099026;28;4613;-68
2021/09/29 01:37:54;;;;;;;;;;;;;;;;;;2097345;28;4636;-67
2021/09/29 01:38:56;;;;;;;;;;;;;;;;;;2095133;28;3996;-68
2021/09/29 01:39:56;;;;;;;;;;;;;;;;;;2095572;28;4148;-68
2021/09/29 01:40:57;;;;;;;;;;;;;;;;;;2097049;28;4609;-68
2021/09/29 01:41:57;;;;;;;;;;;;;;;;;;2096634;28;4681;-67
2021/09/29 01:42:58;;;;;;;;;;;;;;;;;;2097058;28;4088;-68
2021/09/29 01:43:58;;;;;;;;;;;;;;;;;;2096696;28;4644;-67
2021/09/29 01:44:59;;;;;;;;;;;;;;;;;;2096746;28;3957;-67
2021/09/29 01:45:59;;;;;;;;;;;;;;;;;;2096918;28;4906;-68
2021/09/29 01:47:01;;;;;;;;;;;;;;;;;;2098014;28;5273;-69
2021/09/29 01:48:01;;;;;;;;;;;;;;;;;;2097942;28;5057;-68
2021/09/29 01:49:02;;;;;;;;;;;;;;;;;;2095094;28;4513;-67
2021/09/29 01:50:03;;;;;;;;;;;;;;;;;;2095716;28;3941;-68
2021/09/29 01:51:04;;;;;;;;;;;;;;;;;;2097526;28;3956;-68
2021/09/29 01:52:04;;;;;;;;;;;;;;;;;;2096973;28;4191;-68
2021/09/29 01:53:05;;;;;;;;;;;;;;;;;;2096517;28;4798;-68
2021/09/29 01:54:05;;;;;;;;;;;;;;;;;;2096562;28;4758;-68
2021/09/29 01:55:06;;;;;;;;;;;;;;;;;;2094406;28;4817;-67
2021/09/29 01:56:06;;;;;;;;;;;;;;;;;;2094562;28;4259;-69
2021/09/29 01:57:07;;;;;;;;;;;;;;;;;;2095852;28;4274;-68
2021/09/29 01:58:07;;;;;;;;;;;;;;;;;;2095080;28;4221;-67
2021/09/29 01:59:08;;;;;;;;;;;;;;;;;;2094644;28;4458;-67
2021/09/29 02:00:09;;;;;;;;;;;;;;;;;;2095776;28;4945;-69
2021/09/29 02:01:10;;;;;;;;;;;;;;;;;;2097175;28;4431;-68
2021/09/29 02:02:10;;;;;;;;;;;;;;;;;;2095117;28;3935;-68
2021/09/29 02:03:11;;;;;;;;;;;;;;;;;;2095563;28;4664;-68
2021/09/29 02:04:12;;;;;;;;;;;;;;;;;;2095861;28;4487;-68
2021/09/29 02:05:13;;;;;;;;;;;;;;;;;;2094441;28;4953;-68
2021/09/29 02:06:13;;;;;;;;;;;;;;;;;;2096116;28;4721;-68
2021/09/29 02:07:14;;;;;;;;;;;;;;;;;;2096360;28;4025;-67
2021/09/29 02:08:14;;;;;;;;;;;;;;;;;;2096295;28;4039;-67
2021/09/29 02:09:15;;;;;;;;;;;;;;;;;;2095852;28;4694;-67
2021/09/29 02:10:16;;;;;;;;;;;;;;;;;;2096751;28;4305;-67
2021/09/29 02:11:17;;;;;;;;;;;;;;;;;;2098263;28;4821;-68
2021/09/29 02:12:17;;;;;;;;;;;;;;;;;;2098779;28;3960;-67
2021/09/29 02:13:18;;;;;;;;;;;;;;;;;;2097793;28;4607;-67
2021/09/29 02:14:18;;;;;;;;;;;;;;;;;;2092691;28;4227;-67
2021/09/29 02:15:19;;;;;;;;;;;;;;;;;;2096360;28;4375;-68
2021/09/29 02:16:19;;;;;;;;;;;;;;;;;;2096715;28;4318;-69
2021/09/29 02:17:20;;;;;;;;;;;;;;;;;;2097406;28;4565;-68
2021/09/29 02:18:20;;;;;;;;;;;;;;;;;;2100316;28;5089;-67
2021/09/29 02:19:21;;;;;;;;;;;;;;;;;;2097946;28;4987;-67
2021/09/29 02:20:22;;;;;;;;;;;;;;;;;;2096301;28;4734;-69
2021/09/29 02:21:23;;;;;;;;;;;;;;;;;;2096807;28;5122;-68
2021/09/29 02:22:23;;;;;;;;;;;;;;;;;;2099633;28;4891;-67
2021/09/29 02:23:24;;;;;;;;;;;;;;;;;;2098125;28;4715;-68
2021/09/29 02:24:24;;;;;;;;;;;;;;;;;;2097162;28;4624;-68
2021/09/29 02:25:25;;;;;;;;;;;;;;;;;;2095467;28;4801;-67
2021/09/29 02:26:26;;;;;;;;;;;;;;;;;;2095742;28;4956;-69
2021/09/29 02:27:27;;;;;;;;;;;;;;;;;;2095384;28;4229;-69
2021/09/29 02:28:27;;;;;;;;;;;;;;;;;;2094438;28;4806;-69
2021/09/29 02:29:28;;;;;;;;;;;;;;;;;;2096799;28;4472;-67
2021/09/29 02:30:28;;;;;;;;;;;;;;;;;;2098041;28;4838;-68
2021/09/29 02:31:29;;;;;;;;;;;;;;;;;;2098079;28;4114;-68
2021/09/29 02:32:29;;;;;;;;;;;;;;;;;;2096244;28;5198;-68
2021/09/29 02:33:30;;;;;;;;;;;;;;;;;;2095818;28;4161;-67
2021/09/29 02:34:30;;;;;;;;;;;;;;;;;;2095364;28;4677;-68
2021/09/29 02:35:31;;;;;;;;;;;;;;;;;;2093928;28;4723;-68
2021/09/29 02:36:32;;;;;;;;;;;;;;;;;;2094199;28;4331;-68
2021/09/29 02:37:33;;;;;;;;;;;;;;;;;;2094378;28;4164;-68
2021/09/29 02:38:33;;;;;;;;;;;;;;;;;;2094776;28;4099;-67
2021/09/29 02:39:34;;;;;;;;;;;;;;;;;;2096330;28;4641;-67
2021/09/29 02:40:34;;;;;;;;;;;;;;;;;;2094651;28;4289;-68
2021/09/29 02:41:35;;;;;;;;;;;;;;;;;;2096883;28;4668;-68
2021/09/29 02:42:36;;;;;;;;;;;;;;;;;;2098257;28;5421;-68
2021/09/29 02:43:37;;;;;;;;;;;;;;;;;;2098762;28;4787;-68
2021/09/29 02:44:37;;;;;;;;;;;;;;;;;;2097641;28;4904;-68
2021/09/29 02:45:38;;;;;;;;;;;;;;;;;;2098666;28;1234;-69
2021/09/29 02:46:38;;;;;;;;;;;;;;;;;;2096338;28;3946;-67
2021/09/29 02:47:39;;;;;;;;;;;;;;;;;;2096776;28;4772;-69
2021/09/29 02:48:39;;;;;;;;;;;;;;;;;;2095991;28;4715;-68
2021/09/29 02:49:40;;;;;;;;;;;;;;;;;;2097659;28;4667;-68
2021/09/29 02:50:41;;;;;;;;;;;;;;;;;;2098357;28;4831;-68
2021/09/29 02:51:41;;;;;;;;;;;;;;;;;;2099158;28;1084;-68
2021/09/29 02:52:42;;;;;;;;;;;;;;;;;;2098650;28;4636;-68
2021/09/29 02:53:43;;;;;;;;;;;;;;;;;;2098008;28;4905;-68
2021/09/29 02:54:44;;;;;;;;;;;;;;;;;;2098379;28;4782;-68
2021/09/29 02:55:44;;;;;;;;;;;;;;;;;;2097880;28;4917;-68
2021/09/29 02:56:45;;;;;;;;;;;;;;;;;;2095858;28;6288;-69
2021/09/29 02:57:45;;;;;;;;;;;;;;;;;;2096721;28;5881;-69
2021/09/29 02:58:46;;;;;;;;;;;;;;;;;;2097467;28;4978;-68
2021/09/29 02:59:46;;;;;;;;;;;;;;;;;;2096432;28;5187;-67
2021/09/29 03:00:47;;;;;;;;;;;;;;;;;;2097011;28;5657;-68
2021/09/29 03:01:47;;;;;;;;;;;;;;;;;;2097999;28;4802;-68
2021/09/29 03:02:49;;;;;;;;;;;;;;;;;;2097276;28;4060;-68
2021/09/29 03:03:49;;;;;;;;;;;;;;;;;;2097188;28;4694;-69
2021/09/29 03:04:50;;;;;;;;;;;;;;;;;;2098172;28;4868;-69
2021/09/29 03:05:50;;;;;;;;;;;;;;;;;;2098336;28;4592;-67
2021/09/29 03:06:51;;;;;;;;;;;;;;;;;;2098297;28;1361;-68
2021/09/29 03:07:52;;;;;;;;;;;;;;;;;;2098209;28;4816;-68
2021/09/29 03:08:52;;;;;;;;;;;;;;;;;;2097828;28;4853;-69
2021/09/29 03:09:53;;;;;;;;;;;;;;;;;;2098055;28;1977;-68
2021/09/29 03:10:53;;;;;;;;;;;;;;;;;;2098720;28;1083;-68
2021/09/29 03:11:54;;;;;;;;;;;;;;;;;;2097095;28;5250;-68
2021/09/29 03:12:54;;;;;;;;;;;;;;;;;;2098209;28;2413;-67
2021/09/29 03:13:56;;;;;;;;;;;;;;;;;;2099167;28;1328;-68
2021/09/29 03:14:56;;;;;;;;;;;;;;;;;;2098096;28;4682;-68
2021/09/29 03:15:57;;;;;;;;;;;;;;;;;;2097432;28;4799;-67
2021/09/29 03:16:57;;;;;;;;;;;;;;;;;;2099121;28;4799;-69
2021/09/29 03:17:58;;;;;;;;;;;;;;;;;;2097682;28;4467;-69
2021/09/29 03:18:58;;;;;;;;;;;;;;;;;;2097731;28;1161;-68
2021/09/29 03:20:00;;;;;;;;;;;;;;;;;;2098078;28;1143;-69
2021/09/29 03:21:00;;;;;;;;;;;;;;;;;;2097722;28;1115;-67
2021/09/29 03:22:02;;;;;;;;;;;;;;;;;;2098286;28;1233;-67
2021/09/29 03:23:02;;;;;;;;;;;;;;;;;;2098659;28;1098;-69
2021/09/29 03:24:03;;;;;;;;;;;;;;;;;;2097568;28;3421;-69
2021/09/29 03:25:03;;;;;;;;;;;;;;;;;;2098035;28;1029;-68
2021/09/29 03:26:04;;;;;;;;;;;;;;;;;;2098542;28;1076;-69
2021/09/29 03:27:05;;;;;;;;;;;;;;;;;;2097360;28;1244;-69
2021/09/29 03:28:06;;;;;;;;;;;;;;;;;;2109734;22;3743;-73
2021/09/29 03:29:06;;;;;;;;;;;;;;;;;;2091227;28;1206;-76
2021/09/29 03:30:07;;;;;;;;;;;;;;;;;;2093965;28;1926;-76
2021/09/29 03:31:07;;;;;;;;;;;;;;;;;;2092969;28;1474;-77
2021/09/29 03:32:09;;;;;;;;;;;;;;;;;;2094411;28;1172;-76
2021/09/29 03:33:09;;;;;;;;;;;;;;;;;;2093778;28;1089;-76
2021/09/29 03:34:10;;;;;;;;;;;;;;;;;;2094601;28;1146;-76
2021/09/29 03:35:10;;;;;;;;;;;;;;;;;;2094915;28;1232;-76
2021/09/29 03:36:11;;;;;;;;;;;;;;;;;;2095087;28;1356;-76
2021/09/29 03:37:11;;;;;;;;;;;;;;;;;;2094831;28;1554;-77
2021/09/29 03:38:12;;;;;;;;;;;;;;;;;;2095267;28;1303;-76
2021/09/29 03:39:12;;;;;;;;;;;;;;;;;;2092520;28;1316;-76
2021/09/29 03:40:13;;;;;;;;;;;;;;;;;;2094408;28;1134;-77
2021/09/29 03:42:38;;;;;;;;;;;;;;;;;;2124262;27;2207;-74
2021/09/29 03:43:38;;;;;;;;;;;;;;;;;;2116506;27;1099;-75
2021/09/29 03:44:39;;;;;;;;;;;;;;;;;;2118058;27;1277;-75
2021/09/29 03:45:39;;;;;;;;;;;;;;;;;;2117184;27;1264;-75
2021/09/29 03:46:40;;;;;;;;;;;;;;;;;;2117679;27;1206;-74
2021/09/29 03:47:42;;;;;;;;;;;;;;;;;;2116551;27;1518;-74
2021/09/29 03:48:44;;;;;;;;;;;;;;;;;;2110896;28;1612;-75
2021/09/29 03:49:44;;;;;;;;;;;;;;;;;;2109938;28;3875;-74
2021/09/29 03:50:45;;;;;;;;;;;;;;;;;;2111184;28;1215;-74
2021/09/29 03:51:46;;;;;;;;;;;;;;;;;;2111424;28;1096;-74
2021/09/29 03:52:46;;;;;;;;;;;;;;;;;;2111035;28;1938;-74
2021/09/29 03:53:47;;;;;;;;;;;;;;;;;;2111315;27;1228;-76
2021/09/29 03:54:47;;;;;;;;;;;;;;;;;;2108494;28;1694;-74
2021/09/29 03:55:49;;;;;;;;;;;;;;;;;;2111199;28;1192;-75
2021/09/29 03:56:50;;;;;;;;;;;;;;;;;;2111317;28;1138;-75
2021/09/29 03:57:51;;;;;;;;;;;;;;;;;;2110318;27;1251;-74
2021/09/29 03:58:52;;;;;;;;;;;;;;;;;;2111033;28;1079;-74
2021/09/29 03:59:52;;;;;;;;;;;;;;;;;;2110689;28;1169;-75
2021/09/29 04:00:53;;;;;;;;;;;;;;;;;;2111432;28;1060;-75
2021/09/29 04:01:53;;;;;;;;;;;;;;;;;;2111185;28;2062;-74
2021/09/29 04:02:54;;;;;;;;;;;;;;;;;;2110089;28;1151;-74
2021/09/29 04:03:56;;;;;;;;;;;;;;;;;;2111755;28;1212;-75
2021/09/29 04:05:00;;;;;;;;;;;;;;;;;;2109628;27;1311;-74
2021/09/29 04:06:00;;;;;;;;;;;;;;;;;;2110705;28;1247;-75
2021/09/29 04:07:01;;;;;;;;;;;;;;;;;;2111634;28;1134;-74
2021/09/29 04:08:01;;;;;;;;;;;;;;;;;;2109818;27;1365;-75
2021/09/29 04:09:03;;;;;;;;;;;;;;;;;;2111074;28;1228;-74
2021/09/29 04:10:03;;;;;;;;;;;;;;;;;;2110396;28;1214;-75
2021/09/29 04:11:07;;;;;;;;;;;;;;;;;;2110693;28;1281;-75
2021/09/29 04:12:07;;;;;;;;;;;;;;;;;;2110688;27;1269;-74
2021/09/29 04:13:08;;;;;;;;;;;;;;;;;;2110521;27;1141;-75
2021/09/29 04:14:08;;;;;;;;;;;;;;;;;;2111751;27;1449;-75
2021/09/29 04:15:09;;;;;;;;;;;;;;;;;;2111143;28;1117;-75
2021/09/29 04:16:09;;;;;;;;;;;;;;;;;;2110861;28;1110;-74
2021/09/29 04:17:10;;;;;;;;;;;;;;;;;;2110691;28;1340;-74
2021/09/29 04:18:11;;;;;;;;;;;;;;;;;;2109303;27;3396;-74
2021/09/29 04:19:12;;;;;;;;;;;;;;;;;;2107164;28;1046;-74
2021/09/29 04:20:12;;;;;;;;;;;;;;;;;;2110710;28;3331;-75
2021/09/29 04:21:13;;;;;;;;;;;;;;;;;;2110781;27;1080;-75
2021/09/29 04:22:13;;;;;;;;;;;;;;;;;;2109896;27;1992;-75
2021/09/29 04:23:14;;;;;;;;;;;;;;;;;;2111165;28;1195;-74
2021/09/29 04:24:16;;;;;;;;;;;;;;;;;;2110270;28;1193;-74
2021/09/29 04:25:17;;;;;;;;;;;;;;;;;;2110954;28;1233;-75
2021/09/29 04:26:17;;;;;;;;;;;;;;;;;;2111493;28;1043;-74
2021/09/29 04:27:20;;;;;;;;;;;;;;;;;;2111005;28;1077;-74
2021/09/29 04:28:20;;;;;;;;;;;;;;;;;;2109338;27;1385;-75
2021/09/29 04:29:21;;;;;;;;;;;;;;;;;;2110998;28;1060;-75
2021/09/29 04:30:21;;;;;;;;;;;;;;;;;;2110909;28;1079;-75
2021/09/29 04:31:22;;;;;;;;;;;;;;;;;;2111031;28;1450;-75
2021/09/29 04:32:22;;;;;;;;;;;;;;;;;;2111087;28;1078;-74
2021/09/29 04:33:23;;;;;;;;;;;;;;;;;;2111559;28;1107;-74
2021/09/29 04:34:24;;;;;;;;;;;;;;;;;;2110756;28;1165;-74
2021/09/29 04:35:25;;;;;;;;;;;;;;;;;;2110829;28;1185;-75
2021/09/29 04:36:25;;;;;;;;;;;;;;;;;;2111148;28;1668;-76
2021/09/29 04:37:26;;;;;;;;;;;;;;;;;;2110271;28;1194;-75
2021/09/29 04:38:26;;;;;;;;;;;;;;;;;;2106771;27;1336;-75
2021/09/29 04:39:27;;;;;;;;;;;;;;;;;;2102800;28;2325;-75
2021/09/29 04:40:27;;;;;;;;;;;;;;;;;;2106900;28;1298;-75
2021/09/29 04:41:28;;;;;;;;;;;;;;;;;;2111243;28;1293;-75
2021/09/29 04:42:28;;;;;;;;;;;;;;;;;;2110895;27;1996;-75
2021/09/29 04:43:30;;;;;;;;;;;;;;;;;;2111325;27;1475;-74
2021/09/29 04:44:30;;;;;;;;;;;;;;;;;;2110968;27;1374;-75
2021/09/29 04:45:31;;;;;;;;;;;;;;;;;;2110780;28;1213;-75
2021/09/29 04:46:31;;;;;;;;;;;;;;;;;;2109739;28;1359;-74
2021/09/29 04:47:32;;;;;;;;;;;;;;;;;;2106196;28;1271;-75
2021/09/29 04:48:32;;;;;;;;;;;;;;;;;;2106535;28;1221;-74
2021/09/29 04:49:34;;;;;;;;;;;;;;;;;;2105594;27;1574;-74
2021/09/29 04:50:34;;;;;;;;;;;;;;;;;;2106335;27;4113;-75
2021/09/29 04:51:35;;;;;;;;;;;;;;;;;;2106081;27;1437;-75
2021/09/29 04:52:36;;;;;;;;;;;;;;;;;;2106609;28;1121;-75
2021/09/29 04:53:37;;;;;;;;;;;;;;;;;;2101087;28;1346;-74
2021/09/29 04:54:37;;;;;;;;;;;;;;;;;;2100001;28;2245;-76
2021/09/29 04:55:38;;;;;;;;;;;;;;;;;;2101634;28;1121;-75
2021/09/29 04:56:39;;;;;;;;;;;;;;;;;;2100931;28;1054;-75
2021/09/29 04:57:40;;;;;;;;;;;;;;;;;;2101428;28;1369;-75
2021/09/29 04:58:40;;;;;;;;;;;;;;;;;;2100714;28;1042;-75
2021/09/29 04:59:42;;;;;;;;;;;;;;;;;;2101471;28;1067;-75
2021/09/29 05:00:42;;;;;;;;;;;;;;;;;;2100086;28;1284;-74
2021/09/29 05:01:43;;;;;;;;;;;;;;;;;;2099848;28;1922;-75
2021/09/29 05:02:43;;;;;;;;;;;;;;;;;;2099702;28;3793;-74
2021/09/29 05:03:44;;;;;;;;;;;;;;;;;;2097377;28;4843;-75
2021/09/29 05:04:44;;;;;;;;;;;;;;;;;;2100015;28;4533;-74
2021/09/29 05:05:45;;;;;;;;;;;;;;;;;;2099924;28;4340;-75
2021/09/29 05:06:46;;;;;;;;;;;;;;;;;;2100671;28;1453;-75
2021/09/29 05:07:47;;;;;;;;;;;;;;;;;;2099446;28;4580;-74
2021/09/29 05:08:47;;;;;;;;;;;;;;;;;;2099690;28;4363;-75
2021/09/29 05:09:50;;;;;;;;;;;;;;;;;;2098764;28;2041;-74
2021/09/29 05:10:50;;;;;;;;;;;;;;;;;;2099744;28;2361;-74
2021/09/29 05:11:52;;;;;;;;;;;;;;;;;;2100345;28;3510;-74
2021/09/29 05:12:52;;;;;;;;;;;;;;;;;;2100753;28;3935;-74
2021/09/29 05:13:53;;;;;;;;;;;;;;;;;;2100844;28;4499;-74
2021/09/29 05:14:53;;;;;;;;;;;;;;;;;;2101585;28;1288;-74
2021/09/29 05:15:54;;;;;;;;;;;;;;;;;;2101440;28;4229;-75
2021/09/29 05:16:55;;;;;;;;;;;;;;;;;;2100987;28;3277;-76
2021/09/29 05:17:55;;;;;;;;;;;;;;;;;;2100283;27;4105;-74
2021/09/29 05:18:56;;;;;;;;;;;;;;;;;;2102587;28;4851;-74
2021/09/29 05:19:56;;;;;;;;;;;;;;;;;;2101492;28;4447;-74
2021/09/29 05:20:57;;;;;;;;;;;;;;;;;;2102141;28;1154;-74
2021/09/29 05:21:58;;;;;;;;;;;;;;;;;;2101148;28;4780;-75
2021/09/29 05:22:59;;;;;;;;;;;;;;;;;;2101978;28;1106;-75
2021/09/29 05:23:59;;;;;;;;;;;;;;;;;;2101241;28;4820;-74
2021/09/29 05:25:00;;;;;;;;;;;;;;;;;;2100504;28;3831;-74
2021/09/29 05:26:00;;;;;;;;;;;;;;;;;;2101466;28;1040;-74
2021/09/29 05:27:01;;;;;;;;;;;;;;;;;;2102263;28;4463;-75
2021/09/29 05:28:01;;;;;;;;;;;;;;;;;;2098495;28;2777;-74
2021/09/29 05:29:02;;;;;;;;;;;;;;;;;;2099012;27;2114;-74
2021/09/29 05:30:03;;;;;;;;;;;;;;;;;;2101474;28;1627;-74
2021/09/29 05:31:04;;;;;;;;;;;;;;;;;;2103053;28;1370;-74
2021/09/29 05:32:04;;;;;;;;;;;;;;;;;;2102080;28;2875;-74
2021/09/29 05:33:05;;;;;;;;;;;;;;;;;;2103003;28;1106;-74
2021/09/29 05:34:05;;;;;;;;;;;;;;;;;;2102873;28;4428;-74
2021/09/29 05:35:06;;;;;;;;;;;;;;;;;;2102430;28;1083;-75
2021/09/29 05:36:06;;;;;;;;;;;;;;;;;;2101065;28;1550;-75
2021/09/29 05:37:07;;;;;;;;;;;;;;;;;;2102521;28;3402;-75
2021/09/29 05:38:07;;;;;;;;;;;;;;;;;;2102203;28;2354;-74
2021/09/29 05:39:09;;;;;;;;;;;;;;;;;;2103082;28;2358;-74
2021/09/29 05:40:09;;;;;;;;;;;;;;;;;;2102271;28;1369;-75
2021/09/29 05:41:11;;;;;;;;;;;;;;;;;;2103201;28;1291;-74
2021/09/29 05:42:13;;;;;;;;;;;;;;;;;;2103968;28;2382;-74
2021/09/29 05:43:14;;;;;;;;;;;;;;;;;;2103704;28;2232;-74
2021/09/29 05:44:15;;;;;;;;;;;;;;;;;;2103680;28;1234;-74
2021/09/29 05:45:15;;;;;;;;;;;;;;;;;;2104589;28;1138;-74
2021/09/29 05:46:16;;;;;;;;;;;;;;;;;;2102872;28;4935;-73
2021/09/29 05:47:16;;;;;;;;;;;;;;;;;;2104978;28;1084;-75
2021/09/29 05:48:17;;;;;;;;;;;;;;;;;;2103895;28;2357;-74
2021/09/29 05:49:17;;;;;;;;;;;;;;;;;;2103770;28;2813;-75
2021/09/29 05:50:19;;;;;;;;;;;;;;;;;;2103436;28;1355;-75
2021/09/29 05:51:19;;;;;;;;;;;;;;;;;;2102829;28;3304;-74
2021/09/29 05:52:20;;;;;;;;;;;;;;;;;;2104505;28;1282;-75
2021/09/29 05:53:20;;;;;;;;;;;;;;;;;;2104500;28;1081;-74
2021/09/29 05:54:21;;;;;;;;;;;;;;;;;;2104334;28;1293;-74
2021/09/29 05:55:22;;;;;;;;;;;;;;;;;;2105213;28;1028;-74
2021/09/29 05:56:22;;;;;;;;;;;;;;;;;;2103222;28;2134;-74
2021/09/29 05:57:23;;;;;;;;;;;;;;;;;;2105114;28;1352;-74
2021/09/29 05:58:24;;;;;;;;;;;;;;;;;;2103536;27;3491;-75
2021/09/29 05:59:25;;;;;;;;;;;;;;;;;;2101922;28;2766;-75
2021/09/29 06:00:25;;;;;;;;;;;;;;;;;;2102053;28;2568;-74
2021/09/29 06:01:26;;;;;;;;;;;;;;;;;;2102323;28;1100;-76
2021/09/29 06:02:26;;;;;;;;;;;;;;;;;;2097278;27;2440;-74
2021/09/29 06:03:27;;;;;;;;;;;;;;;;;;2103441;27;2284;-75
2021/09/29 06:04:28;;;;;;;;;;;;;;;;;;2102311;28;2271;-74
2021/09/29 06:05:29;;;;;;;;;;;;;;;;;;2100327;28;2778;-74
2021/09/29 06:06:29;;;;;;;;;;;;;;;;;;2099625;28;2867;-75
2021/09/29 06:07:30;;;;;;;;;;;;;;;;;;2100685;28;2919;-75
2021/09/29 06:08:30;;;;;;;;;;;;;;;;;;2100228;28;2948;-75
2021/09/29 06:09:31;;;;;;;;;;;;;;;;;;2100165;28;3021;-75
2021/09/29 06:10:31;;;;;;;;;;;;;;;;;;2099313;28;3670;-74
2021/09/29 06:11:32;;;;;;;;;;;;;;;;;;2100003;28;2618;-74
2021/09/29 06:12:32;;;;;;;;;;;;;;;;;;2100336;28;2333;-74
2021/09/29 06:13:34;;;;;;;;;;;;;;;;;;2100080;28;2318;-74
2021/09/29 06:14:34;;;;;;;;;;;;;;;;;;2097979;28;3533;-75
2021/09/29 06:15:35;;;;;;;;;;;;;;;;;;2100517;28;1690;-75
2021/09/29 06:16:36;;;;;;;;;;;;;;;;;;2098847;28;2224;-74
2021/09/29 06:17:40;;;;;;;;;;;;;;;;;;2099452;28;1248;-75
2021/09/29 06:18:40;;;;;;;;;;;;;;;;;;2099279;28;2401;-74
2021/09/29 06:19:41;;;;;;;;;;;;;;;;;;2098559;28;2027;-74
2021/09/29 06:20:42;;;;;;;;;;;;;;;;;;2100224;28;1042;-75
2021/09/29 06:21:42;;;;;;;;;;;;;;;;;;2099086;28;2406;-75
2021/09/29 06:22:44;;;;;;;;;;;;;;;;;;2100742;27;4423;-75
2021/09/29 06:23:45;;;;;;;;;;;;;;;;;;2101083;28;2619;-74
2021/09/29 06:24:46;;;;;;;;;;;;;;;;;;2100493;28;1373;-74
2021/09/29 06:25:47;;;;;;;;;;;;;;;;;;2100891;28;1181;-75
2021/09/29 06:26:47;;;;;;;;;;;;;;;;;;2100734;28;2365;-74
2021/09/29 06:27:48;;;;;;;;;;;;;;;;;;2099881;28;2325;-74
2021/09/29 06:29:40;;;;;;;;;;;;;;;;;;2121758;27;1606;-74
2021/09/29 06:30:41;;;;;;;;;;;;;;;;;;2123868;27;1273;-74
2021/09/29 06:31:41;;;;;;;;;;;;;;;;;;2123605;27;2859;-75
2021/09/29 06:32:42;;;;;;;;;;;;;;;;;;2123642;27;1029;-74
2021/09/29 06:33:45;;;;;;;;;;;;;;;;;;2122801;27;1268;-74
2021/09/29 06:34:45;;;;;;;;;;;;;;;;;;2123004;27;1140;-75
2021/09/29 06:35:46;;;;;;;;;;;;;;;;;;2123517;27;1120;-74
2021/09/29 06:36:46;;;;;;;;;;;;;;;;;;2122216;27;3188;-74
2021/09/29 06:37:47;;;;;;;;;;;;;;;;;;2120052;27;2147;-75
2021/09/29 06:38:48;;;;;;;;;;;;;;;;;;2115856;27;2589;-74
2021/09/29 06:39:48;;;;;;;;;;;;;;;;;;2113058;27;2970;-74
2021/09/29 06:40:50;;;;;;;;;;;;;;;;;;2114983;27;3332;-74
2021/09/29 06:41:51;;;;;;;;;;;;;;;;;;2114686;27;1172;-75
2021/09/29 06:42:52;;;;;;;;;;;;;;;;;;2114626;27;1133;-74
2021/09/29 06:43:53;;;;;;;;;;;;;;;;;;2116153;27;1147;-74
2021/09/29 06:44:53;;;;;;;;;;;;;;;;;;2115137;27;2907;-74
2021/09/29 06:45:54;;;;;;;;;;;;;;;;;;2115455;27;1071;-75
2021/09/29 06:46:54;;;;;;;;;;;;;;;;;;2115278;27;1164;-74
2021/09/29 06:47:57;;;;;;;;;;;;;;;;;;2115565;27;1412;-75
2021/09/29 06:48:57;;;;;;;;;;;;;;;;;;2115779;27;2572;-75
2021/09/29 06:49:58;;;;;;;;;;;;;;;;;;2115670;27;1180;-75
2021/09/29 06:50:59;;;;;;;;;;;;;;;;;;2114391;27;2411;-74
2021/09/29 06:51:59;;;;;;;;;;;;;;;;;;2114965;27;2812;-74
2021/09/29 06:53:03;;;;;;;;;;;;;;;;;;2115130;27;1151;-74
2021/09/29 06:54:03;;;;;;;;;;;;;;;;;;2115120;27;3194;-75
2021/09/29 06:55:04;;;;;;;;;;;;;;;;;;2115138;27;1193;-75
2021/09/29 06:56:06;;;;;;;;;;;;;;;;;;2114488;27;1098;-74
2021/09/29 06:57:07;;;;;;;;;;;;;;;;;;2115068;27;3515;-75
2021/09/29 06:58:08;;;;;;;;;;;;;;;;;;2115349;27;1999;-74
2021/09/29 06:59:09;;;;;;;;;;;;;;;;;;2115379;27;2646;-75
2021/09/29 07:00:09;;;;;;;;;;;;;;;;;;2114759;27;1590;-75
2021/09/29 07:01:10;;;;;;;;;;;;;;;;;;2115090;27;1273;-75
2021/09/29 07:02:10;;;;;;;;;;;;;;;;;;2114355;27;2679;-74
2021/09/29 07:03:11;;;;;;;;;;;;;;;;;;2114765;27;1138;-75
2021/09/29 07:04:12;;;;;;;;;;;;;;;;;;2114486;27;1304;-75